Time;durP1;ratioP1;P1;durP2;ratioP2;P2;SDS_P1;SDS_P2;PMS_P1;PMS_P2;Temp;Humidity;BMP_temperature;BMP_pressure;BME280_temperature;BME280_humidity;BME280_pressure;Samples;Min_cycle;Max_cycle;Signal;HPM_P1;HPM_P2
2021/12/27 00:01:51;;;;;;;0.40;0.40;;;;;;;;;;4993006;28;20671;-64
2021/12/27 00:04:17;;;;;;;0.40;0.40;;;;;;;;;;4993855;28;20418;-64
2021/12/27 00:06:43;;;;;;;0.40;0.40;;;;;;;;;;4992058;28;20178;-64
2021/12/27 00:09:09;;;;;;;0.40;0.40;;;;;;;;;;4993620;28;20417;-64
2021/12/27 00:11:35;;;;;;;0.40;0.40;;;;;;;;;;4990597;28;20564;-64
2021/12/27 00:14:01;;;;;;;0.40;0.40;;;;;;;;;;4991986;28;20986;-64
2021/12/27 00:16:27;;;;;;;0.40;0.40;;;;;;;;;;4993460;28;20515;-64
2021/12/27 00:18:53;;;;;;;0.40;0.40;;;;;;;;;;4993367;28;20927;-64
2021/12/27 00:21:19;;;;;;;0.40;0.40;;;;;;;;;;4992749;28;20409;-65
2021/12/27 00:23:45;;;;;;;0.40;0.40;;;;;;;;;;4992851;28;20448;-64
2021/12/27 00:26:11;;;;;;;0.40;0.40;;;;;;;;;;4992284;28;20449;-64
2021/12/27 00:28:37;;;;;;;0.40;0.40;;;;;;;;;;4992660;28;20580;-64
2021/12/27 00:31:03;;;;;;;0.40;0.40;;;;;;;;;;4992700;28;20311;-66
2021/12/27 00:33:29;;;;;;;0.40;0.40;;;;;;;;;;4992767;28;20467;-64
2021/12/27 00:35:55;;;;;;;0.40;0.40;;;;;;;;;;4993201;28;20177;-63
2021/12/27 00:38:21;;;;;;;0.40;0.40;;;;;;;;;;4992880;28;20173;-64
2021/12/27 00:40:47;;;;;;;0.50;0.50;;;;;;;;;;4990906;28;20193;-64
2021/12/27 00:43:21;;;;;;;0.40;0.40;;;;;;;;;;4982666;28;20215;-63
2021/12/27 00:45:47;;;;;;;0.40;0.40;;;;;;;;;;4973647;28;20185;-64
2021/12/27 00:48:15;;;;;;;0.40;0.40;;;;;;;;;;4973529;28;20187;-64
2021/12/27 00:50:41;;;;;;;0.50;0.50;;;;;;;;;;4972780;28;20204;-63
2021/12/27 00:53:07;;;;;;;0.50;0.50;;;;;;;;;;4973573;28;20206;-64
2021/12/27 00:55:33;;;;;;;0.50;0.50;;;;;;;;;;4973757;28;20411;-63
2021/12/27 00:57:59;;;;;;;0.50;0.50;;;;;;;;;;4973734;28;20409;-65
2021/12/27 01:00:25;;;;;;;0.40;0.40;;;;;;;;;;4987801;28;21004;-62
2021/12/27 01:02:53;;;;;;;0.50;0.50;;;;;;;;;;4983956;28;21155;-64
2021/12/27 01:05:19;;;;;;;0.50;0.50;;;;;;;;;;4991585;28;20181;-63
2021/12/27 01:07:45;;;;;;;0.50;0.50;;;;;;;;;;4992390;28;20256;-63
2021/12/27 01:10:55;;;;;;;0.50;0.50;;;;;;;;;;4992066;28;20665;-64
2021/12/27 01:16:10;;;;;;;0.40;0.40;;;;;;;;;;4991045;28;20179;-65
2021/12/27 01:18:47;;;;;;;0.40;0.40;;;;;;;;;;4989448;28;20209;-64
2021/12/27 01:21:14;;;;;;;0.40;0.40;;;;;;;;;;4972346;28;20182;-64
2021/12/27 01:23:40;;;;;;;0.50;0.50;;;;;;;;;;4986692;28;20212;-63
2021/12/27 01:26:06;;;;;;;0.40;0.40;;;;;;;;;;4992439;28;20182;-65
2021/12/27 01:28:32;;;;;;;0.40;0.40;;;;;;;;;;4992335;28;20185;-63
2021/12/27 01:30:59;;;;;;;0.40;0.40;;;;;;;;;;4991570;28;20460;-62
2021/12/27 01:33:25;;;;;;;0.40;0.40;;;;;;;;;;4991441;28;20211;-65
2021/12/27 01:35:52;;;;;;;0.40;0.40;;;;;;;;;;4992258;28;20557;-64
2021/12/27 01:38:18;;;;;;;0.50;0.50;;;;;;;;;;4990023;28;20284;-64
2021/12/27 01:40:45;;;;;;;0.50;0.50;;;;;;;;;;4989655;28;20268;-64
2021/12/27 01:43:28;;;;;;;0.50;0.50;;;;;;;;;;4992258;28;20455;-64
2021/12/27 01:45:59;;;;;;;0.50;0.50;;;;;;;;;;4992329;28;20183;-64
2021/12/27 01:48:29;;;;;;;0.50;0.50;;;;;;;;;;4983786;28;20210;-63
2021/12/27 01:50:55;;;;;;;0.45;0.45;;;;;;;;;;4972205;28;20225;-65
2021/12/27 01:53:23;;;;;;;0.50;0.50;;;;;;;;;;4982778;28;20732;-63
2021/12/27 01:55:49;;;;;;;0.40;0.40;;;;;;;;;;4992223;28;20182;-64
2021/12/27 01:58:16;;;;;;;0.50;0.50;;;;;;;;;;4992065;28;20201;-64
2021/12/27 02:00:43;;;;;;;0.40;0.40;;;;;;;;;;4991377;28;20264;-64
2021/12/27 02:03:09;;;;;;;0.50;0.50;;;;;;;;;;4991967;28;20280;-64
2021/12/27 02:05:36;;;;;;;0.50;0.50;;;;;;;;;;4990380;28;20197;-64
2021/12/27 02:08:02;;;;;;;0.50;0.50;;;;;;;;;;4991927;28;20174;-64
2021/12/27 02:10:28;;;;;;;0.50;0.50;;;;;;;;;;4991217;28;20205;-62
2021/12/27 02:13:02;;;;;;;0.50;0.50;;;;;;;;;;4982928;28;20270;-63
2021/12/27 02:15:28;;;;;;;0.50;0.50;;;;;;;;;;4991065;28;20195;-65
2021/12/27 02:17:54;;;;;;;0.50;0.50;;;;;;;;;;4991885;28;20610;-65
2021/12/27 02:20:25;;;;;;;0.50;0.50;;;;;;;;;;4991190;28;20182;-64
2021/12/27 02:22:55;;;;;;;0.50;0.50;;;;;;;;;;4991830;28;20754;-63
2021/12/27 02:25:21;;;;;;;0.50;0.50;;;;;;;;;;4991815;28;20227;-64
2021/12/27 02:27:47;;;;;;;0.50;0.50;;;;;;;;;;4981646;28;20555;-65
2021/12/27 02:30:17;;;;;;;0.50;0.50;;;;;;;;;;4973748;28;20296;-63
2021/12/27 02:35:12;;;;;;;0.50;0.50;;;;;;;;;;5043354;22;20323;-63
2021/12/27 02:37:38;;;;;;;0.50;0.50;;;;;;;;;;5031398;28;20770;-63
2021/12/27 02:40:04;;;;;;;0.50;0.50;;;;;;;;;;5034080;28;20183;-62
2021/12/27 02:42:30;;;;;;;0.50;0.50;;;;;;;;;;5034192;28;20407;-63
2021/12/27 02:44:56;;;;;;;0.50;0.50;;;;;;;;;;5016282;28;20731;-63
2021/12/27 02:47:22;;;;;;;0.50;0.50;;;;;;;;;;5014621;28;20947;-63
2021/12/27 02:49:48;;;;;;;0.50;0.50;;;;;;;;;;5013650;28;20434;-64
2021/12/27 02:52:14;;;;;;;0.50;0.50;;;;;;;;;;5013787;28;20413;-63
2021/12/27 02:54:45;;;;;;;0.50;0.50;;;;;;;;;;5013773;28;20431;-63
2021/12/27 02:57:11;;;;;;;0.50;0.50;;;;;;;;;;5013221;28;20505;-63
2021/12/27 02:59:37;;;;;;;0.50;0.50;;;;;;;;;;5014167;28;20599;-63
2021/12/27 03:02:03;;;;;;;0.50;0.50;;;;;;;;;;5013691;28;20532;-64
2021/12/27 03:04:34;;;;;;;0.50;0.50;;;;;;;;;;5014272;28;20260;-63
2021/12/27 03:07:00;;;;;;;0.50;0.50;;;;;;;;;;5014225;28;20173;-63
2021/12/27 03:09:27;;;;;;;0.50;0.50;;;;;;;;;;5014281;28;20223;-63
2021/12/27 03:11:54;;;;;;;0.50;0.50;;;;;;;;;;5013277;28;20463;-63
2021/12/27 03:14:23;;;;;;;0.50;0.50;;;;;;;;;;5013193;28;20577;-63
2021/12/27 03:16:49;;;;;;;0.50;0.50;;;;;;;;;;5013881;28;20548;-63
2021/12/27 03:19:15;;;;;;;0.50;0.50;;;;;;;;;;5014065;28;20177;-63
2021/12/27 03:21:41;;;;;;;0.50;0.50;;;;;;;;;;5012839;28;20868;-63
2021/12/27 03:24:06;;;;;;;0.50;0.50;;;;;;;;;;5019672;28;20822;-63
2021/12/27 03:26:32;;;;;;;0.40;0.40;;;;;;;;;;5013815;28;20442;-63
2021/12/27 03:28:58;;;;;;;0.40;0.40;;;;;;;;;;5012925;28;20450;-63
2021/12/27 03:31:24;;;;;;;0.50;0.50;;;;;;;;;;5012860;28;20462;-63
2021/12/27 03:33:50;;;;;;;0.60;0.60;;;;;;;;;;5013600;28;20509;-63
2021/12/27 03:36:16;;;;;;;0.50;0.50;;;;;;;;;;5013620;28;20409;-63
2021/12/27 03:38:49;;;;;;;0.50;0.50;;;;;;;;;;5013608;28;20514;-63
2021/12/27 03:41:17;;;;;;;0.50;0.50;;;;;;;;;;5012843;28;20542;-63
2021/12/27 03:43:43;;;;;;;0.50;0.50;;;;;;;;;;5012562;28;20572;-63
2021/12/27 03:46:09;;;;;;;0.40;0.40;;;;;;;;;;5013524;28;20192;-63
2021/12/27 03:48:35;;;;;;;0.40;0.40;;;;;;;;;;5013578;28;20405;-63
2021/12/27 03:51:02;;;;;;;0.50;0.50;;;;;;;;;;5012796;28;20284;-63
2021/12/27 03:53:29;;;;;;;0.50;0.50;;;;;;;;;;5013071;28;20440;-63
2021/12/27 03:55:55;;;;;;;0.50;0.50;;;;;;;;;;5013501;28;20203;-63
2021/12/27 03:58:34;;;;;;;0.40;0.40;;;;;;;;;;5012451;28;20185;-63
2021/12/27 04:03:32;;;;;;;0.50;0.50;;;;;;;;;;5013399;28;20196;-63
2021/12/27 04:05:58;;;;;;;0.50;0.50;;;;;;;;;;5013040;28;20196;-63
2021/12/27 04:08:25;;;;;;;0.40;0.40;;;;;;;;;;5013182;28;20184;-63
2021/12/27 04:10:51;;;;;;;0.40;0.40;;;;;;;;;;5012426;28;20560;-63
2021/12/27 04:13:18;;;;;;;0.50;0.50;;;;;;;;;;5012007;28;20194;-63
2021/12/27 04:15:45;;;;;;;0.50;0.50;;;;;;;;;;5012977;28;20415;-63
2021/12/27 04:18:11;;;;;;;0.50;0.50;;;;;;;;;;5012974;28;20264;-63
2021/12/27 04:20:37;;;;;;;0.50;0.50;;;;;;;;;;5012404;28;20169;-63
2021/12/27 04:23:03;;;;;;;0.50;0.50;;;;;;;;;;5012846;28;20239;-63
2021/12/27 04:25:29;;;;;;;0.50;0.50;;;;;;;;;;5012873;28;20169;-63
2021/12/27 04:27:55;;;;;;;0.50;0.50;;;;;;;;;;5011772;28;20514;-63
2021/12/27 04:30:21;;;;;;;0.50;0.50;;;;;;;;;;5011867;28;21045;-63
2021/12/27 04:32:47;;;;;;;0.60;0.60;;;;;;;;;;5012640;28;21250;-63
2021/12/27 04:35:13;;;;;;;0.50;0.50;;;;;;;;;;5012691;28;20514;-63
2021/12/27 04:37:40;;;;;;;0.50;0.50;;;;;;;;;;5012566;28;20251;-63
2021/12/27 04:40:08;;;;;;;0.50;0.50;;;;;;;;;;5012119;28;20178;-63
2021/12/27 04:42:34;;;;;;;0.60;0.60;;;;;;;;;;5011580;28;20193;-63
2021/12/27 04:45:01;;;;;;;0.50;0.50;;;;;;;;;;5012452;28;20234;-63
2021/12/27 04:47:27;;;;;;;0.50;0.50;;;;;;;;;;5012495;28;20180;-63
2021/12/27 04:49:53;;;;;;;0.50;0.50;;;;;;;;;;5012297;28;20176;-63
2021/12/27 04:52:19;;;;;;;0.50;0.50;;;;;;;;;;5011372;28;20401;-63
2021/12/27 04:54:45;;;;;;;0.50;0.50;;;;;;;;;;5012134;28;20195;-63
2021/12/27 04:57:11;;;;;;;0.50;0.50;;;;;;;;;;5011442;28;20187;-63
2021/12/27 04:59:37;;;;;;;0.50;0.50;;;;;;;;;;5012247;28;20427;-63
2021/12/27 05:02:04;;;;;;;0.50;0.50;;;;;;;;;;5011609;28;20252;-63
2021/12/27 05:04:30;;;;;;;0.50;0.50;;;;;;;;;;5012130;28;20427;-63
2021/12/27 05:06:56;;;;;;;0.50;0.50;;;;;;;;;;5012141;28;20169;-63
2021/12/27 05:09:22;;;;;;;0.52;0.52;;;;;;;;;;5011652;28;20208;-63
2021/12/27 05:11:48;;;;;;;0.50;0.50;;;;;;;;;;5011376;28;20236;-63
2021/12/27 05:14:14;;;;;;;0.50;0.50;;;;;;;;;;5011203;28;20625;-63
2021/12/27 05:16:40;;;;;;;0.40;0.40;;;;;;;;;;5011880;28;20409;-63
2021/12/27 05:19:06;;;;;;;0.50;0.50;;;;;;;;;;5012020;28;20450;-63
2021/12/27 05:21:32;;;;;;;0.50;0.50;;;;;;;;;;5011270;28;20404;-63
2021/12/27 05:23:58;;;;;;;0.50;0.50;;;;;;;;;;5011506;28;20802;-63
2021/12/27 05:26:24;;;;;;;0.50;0.50;;;;;;;;;;5012078;28;20632;-63
2021/12/27 05:28:50;;;;;;;0.50;0.50;;;;;;;;;;5010890;28;20246;-63
2021/12/27 05:31:16;;;;;;;0.50;0.50;;;;;;;;;;5011058;28;20491;-63
2021/12/27 05:33:42;;;;;;;0.50;0.50;;;;;;;;;;5011566;28;20467;-63
2021/12/27 05:36:08;;;;;;;0.50;0.50;;;;;;;;;;5011489;28;20204;-63
2021/12/27 05:38:34;;;;;;;0.50;0.50;;;;;;;;;;5011704;28;20400;-63
2021/12/27 05:41:00;;;;;;;0.43;0.43;;;;;;;;;;5011153;28;20242;-63
2021/12/27 05:43:27;;;;;;;0.50;0.50;;;;;;;;;;5010793;28;20463;-63
2021/12/27 05:45:53;;;;;;;0.50;0.50;;;;;;;;;;5011558;28;20424;-63
2021/12/27 05:48:19;;;;;;;0.50;0.50;;;;;;;;;;5011702;28;20176;-63
2021/12/27 05:50:45;;;;;;;0.50;0.50;;;;;;;;;;5010699;28;20228;-63
2021/12/27 05:53:11;;;;;;;0.50;0.50;;;;;;;;;;5010441;28;20208;-63
2021/12/27 05:55:37;;;;;;;0.50;0.50;;;;;;;;;;5010377;28;20165;-63
2021/12/27 05:58:04;;;;;;;0.50;0.50;;;;;;;;;;5010690;28;20442;-63
2021/12/27 06:00:30;;;;;;;0.43;0.43;;;;;;;;;;5010861;28;20180;-62
2021/12/27 06:02:56;;;;;;;0.50;0.50;;;;;;;;;;5011478;28;20172;-63
2021/12/27 06:05:23;;;;;;;0.50;0.50;;;;;;;;;;5013776;28;20424;-63
2021/12/27 06:07:50;;;;;;;0.47;0.47;;;;;;;;;;5015264;28;20655;-63
2021/12/27 06:10:16;;;;;;;0.50;0.50;;;;;;;;;;5014696;28;20227;-62
2021/12/27 06:12:42;;;;;;;0.50;0.50;;;;;;;;;;5014416;28;20228;-63
2021/12/27 06:15:08;;;;;;;0.50;0.50;;;;;;;;;;5007135;28;20192;-63
2021/12/27 06:17:34;;;;;;;0.50;0.50;;;;;;;;;;5015170;28;20232;-63
2021/12/27 06:20:01;;;;;;;0.50;0.50;;;;;;;;;;5015112;28;20178;-63
2021/12/27 06:22:28;;;;;;;0.60;0.60;;;;;;;;;;5014658;28;20957;-63
2021/12/27 06:24:54;;;;;;;0.50;0.50;;;;;;;;;;5013761;28;20697;-63
2021/12/27 06:27:20;;;;;;;0.57;0.57;;;;;;;;;;5012742;28;20181;-63
2021/12/27 06:29:46;;;;;;;0.50;0.50;;;;;;;;;;5014241;28;20184;-63
2021/12/27 06:32:14;;;;;;;0.50;0.50;;;;;;;;;;5014331;28;20457;-63
2021/12/27 06:34:41;;;;;;;0.50;0.50;;;;;;;;;;5014699;28;20196;-63
2021/12/27 06:37:07;;;;;;;0.50;0.50;;;;;;;;;;5014987;28;20250;-63
2021/12/27 06:39:33;;;;;;;0.50;0.50;;;;;;;;;;5014994;28;20239;-64
2021/12/27 06:41:59;;;;;;;0.50;0.50;;;;;;;;;;5012877;28;20255;-63
2021/12/27 06:44:25;;;;;;;0.50;0.50;;;;;;;;;;5013887;28;20681;-63
2021/12/27 06:46:52;;;;;;;0.40;0.40;;;;;;;;;;5019774;28;20906;-63
2021/12/27 06:49:18;;;;;;;0.50;0.50;;;;;;;;;;5034533;28;20833;-63
2021/12/27 06:51:44;;;;;;;0.40;0.40;;;;;;;;;;5021661;28;20208;-63
2021/12/27 06:54:10;;;;;;;0.50;0.50;;;;;;;;;;5015994;28;20239;-63
2021/12/27 06:56:36;;;;;;;0.50;0.50;;;;;;;;;;5016846;28;20460;-64
2021/12/27 06:59:03;;;;;;;0.50;0.50;;;;;;;;;;5013357;28;20435;-63
2021/12/27 07:01:29;;;;;;;0.50;0.50;;;;;;;;;;5013341;28;20910;-63
2021/12/27 07:03:55;;;;;;;0.50;0.50;;;;;;;;;;5013401;28;20262;-64
2021/12/27 07:06:22;;;;;;;0.50;0.50;;;;;;;;;;5026746;28;20258;-63
2021/12/27 07:08:48;;;;;;;0.40;0.40;;;;;;;;;;5013677;28;20686;-63
2021/12/27 07:11:14;;;;;;;0.50;0.50;;;;;;;;;;5027231;28;20235;-63
2021/12/27 07:13:41;;;;;;;0.50;0.50;;;;;;;;;;5017057;28;20230;-63
2021/12/27 07:16:07;;;;;;;0.40;0.40;;;;;;;;;;5013132;28;20703;-63
2021/12/27 07:18:33;;;;;;;0.60;0.60;;;;;;;;;;5014765;28;20415;-63
2021/12/27 07:20:59;;;;;;;0.50;0.50;;;;;;;;;;5033375;28;20184;-63
2021/12/27 07:23:25;;;;;;;0.50;0.50;;;;;;;;;;5025049;28;20439;-63
2021/12/27 07:25:51;;;;;;;0.50;0.50;;;;;;;;;;5014123;28;20494;-63
2021/12/27 07:28:17;;;;;;;0.50;0.50;;;;;;;;;;5008549;28;20181;-63
2021/12/27 07:30:43;;;;;;;0.50;0.50;;;;;;;;;;5010662;28;20473;-63
2021/12/27 07:33:09;;;;;;;0.40;0.40;;;;;;;;;;5003992;28;20202;-63
2021/12/27 07:35:35;;;;;;;0.50;0.50;;;;;;;;;;5011131;28;20188;-63
2021/12/27 07:38:01;;;;;;;0.50;0.50;;;;;;;;;;5006595;28;20598;-63
2021/12/27 07:40:28;;;;;;;0.40;0.40;;;;;;;;;;5011360;28;20800;-64
2021/12/27 07:42:54;;;;;;;0.50;0.50;;;;;;;;;;5009752;28;20174;-64
2021/12/27 07:45:20;;;;;;;0.50;0.50;;;;;;;;;;5012926;28;20233;-63
2021/12/27 07:47:46;;;;;;;0.50;0.50;;;;;;;;;;5011126;28;20929;-63
2021/12/27 07:50:12;;;;;;;0.50;0.50;;;;;;;;;;5008729;28;20509;-63
2021/12/27 07:52:38;;;;;;;0.40;0.40;;;;;;;;;;5011879;28;20192;-63
2021/12/27 07:55:05;;;;;;;0.50;0.50;;;;;;;;;;5011058;28;20197;-63
2021/12/27 07:57:31;;;;;;;0.50;0.50;;;;;;;;;;5009109;28;20173;-63
2021/12/27 07:59:57;;;;;;;0.40;0.40;;;;;;;;;;5011464;28;20187;-64
2021/12/27 08:02:23;;;;;;;0.40;0.40;;;;;;;;;;5008606;28;20260;-63
2021/12/27 08:04:49;;;;;;;0.50;0.50;;;;;;;;;;5007210;28;20447;-63
2021/12/27 08:07:15;;;;;;;0.50;0.50;;;;;;;;;;5002729;28;20433;-63
2021/12/27 08:09:41;;;;;;;0.50;0.50;;;;;;;;;;5008677;28;20181;-63
2021/12/27 08:12:09;;;;;;;0.50;0.50;;;;;;;;;;5010778;28;20212;-63
2021/12/27 08:14:35;;;;;;;0.50;0.50;;;;;;;;;;5012344;28;20200;-63
2021/12/27 08:17:01;;;;;;;0.50;0.50;;;;;;;;;;5012196;28;20580;-63
2021/12/27 08:19:27;;;;;;;0.50;0.50;;;;;;;;;;5012934;28;20575;-64
2021/12/27 08:21:53;;;;;;;0.50;0.50;;;;;;;;;;5010349;28;20188;-64
2021/12/27 08:24:19;;;;;;;0.50;0.50;;;;;;;;;;5007539;28;20458;-63
2021/12/27 08:26:45;;;;;;;0.50;0.50;;;;;;;;;;5010835;28;20904;-63
2021/12/27 08:29:11;;;;;;;0.50;0.50;;;;;;;;;;5012229;28;20943;-63
2021/12/27 08:31:37;;;;;;;0.50;0.50;;;;;;;;;;5011301;28;20200;-63
2021/12/27 08:34:04;;;;;;;0.50;0.50;;;;;;;;;;5011438;28;20208;-62
2021/12/27 08:36:30;;;;;;;0.40;0.40;;;;;;;;;;5064425;22;20235;-62
2021/12/27 08:38:56;;;;;;;0.50;0.50;;;;;;;;;;5010164;28;20646;-61
2021/12/27 08:41:27;;;;;;;0.50;0.50;;;;;;;;;;5006532;28;20428;-62
2021/12/27 08:43:54;;;;;;;0.50;0.50;;;;;;;;;;5005463;28;20187;-62
2021/12/27 08:46:20;;;;;;;0.50;0.50;;;;;;;;;;5004919;28;20632;-60
2021/12/27 08:48:46;;;;;;;0.50;0.50;;;;;;;;;;4996474;28;20188;-58
2021/12/27 08:51:11;;;;;;;0.50;0.50;;;;;;;;;;4999534;28;20221;-62
2021/12/27 08:53:37;;;;;;;0.50;0.50;;;;;;;;;;5004061;28;20443;-62
2021/12/27 08:56:05;;;;;;;0.50;0.50;;;;;;;;;;5006998;28;20464;-61
2021/12/27 08:58:31;;;;;;;0.50;0.50;;;;;;;;;;5004586;28;20446;-62
2021/12/27 09:00:57;;;;;;;0.50;0.50;;;;;;;;;;4999962;28;20188;-62
2021/12/27 09:03:23;;;;;;;0.50;0.50;;;;;;;;;;5003434;28;20436;-61
2021/12/27 09:05:49;;;;;;;0.50;0.50;;;;;;;;;;5010682;28;20275;-62
2021/12/27 09:08:15;;;;;;;0.60;0.60;;;;;;;;;;5009981;28;20203;-61
2021/12/27 09:10:41;;;;;;;0.40;0.40;;;;;;;;;;5004996;28;20572;-62
2021/12/27 09:13:07;;;;;;;0.50;0.50;;;;;;;;;;4995709;28;20440;-58
2021/12/27 09:15:33;;;;;;;0.40;0.40;;;;;;;;;;5000163;28;20865;-61
2021/12/27 09:17:59;;;;;;;0.45;0.45;;;;;;;;;;5001942;28;20477;-61
2021/12/27 09:20:27;;;;;;;0.50;0.50;;;;;;;;;;5009309;28;20625;-62
2021/12/27 09:22:53;;;;;;;0.50;0.50;;;;;;;;;;5011063;28;20424;-61
2021/12/27 09:25:19;;;;;;;0.50;0.50;;;;;;;;;;5009252;28;20221;-61
2021/12/27 09:27:45;;;;;;;0.40;0.40;;;;;;;;;;5008355;28;20188;-61
2021/12/27 09:30:12;;;;;;;0.50;0.50;;;;;;;;;;5007810;28;20205;-62
2021/12/27 09:32:38;;;;;;;0.50;0.50;;;;;;;;;;5009979;28;20501;-62
2021/12/27 09:35:05;;;;;;;0.40;0.40;;;;;;;;;;5008555;28;20211;-61
2021/12/27 09:37:31;;;;;;;0.40;0.40;;;;;;;;;;5008488;28;20185;-60
2021/12/27 09:39:57;;;;;;;0.50;0.50;;;;;;;;;;5009671;28;20600;-61
2021/12/27 09:42:24;;;;;;;0.50;0.50;;;;;;;;;;5008894;28;20428;-60
2021/12/27 09:44:51;;;;;;;0.50;0.50;;;;;;;;;;5009598;28;20189;-61
2021/12/27 09:47:18;;;;;;;0.50;0.50;;;;;;;;;;5005198;28;20255;-61
2021/12/27 09:49:45;;;;;;;0.50;0.50;;;;;;;;;;5009036;28;20265;-60
2021/12/27 09:52:11;;;;;;;0.60;0.60;;;;;;;;;;5008823;28;20213;-60
2021/12/27 09:54:38;;;;;;;0.40;0.40;;;;;;;;;;5011023;28;20184;-62
2021/12/27 09:57:04;;;;;;;0.50;0.50;;;;;;;;;;5008582;28;20301;-62
2021/12/27 09:59:31;;;;;;;0.50;0.50;;;;;;;;;;5003847;28;20197;-62
2021/12/27 10:01:57;;;;;;;0.50;0.50;;;;;;;;;;5006019;28;20185;-60
2021/12/27 10:04:23;;;;;;;0.50;0.50;;;;;;;;;;5010805;28;20188;-61
2021/12/27 10:06:49;;;;;;;0.40;0.40;;;;;;;;;;5007479;28;20202;-59
2021/12/27 10:09:15;;;;;;;0.50;0.50;;;;;;;;;;5009550;28;20701;-60
2021/12/27 10:11:43;;;;;;;0.50;0.50;;;;;;;;;;5009256;28;20267;-61
2021/12/27 10:14:10;;;;;;;0.43;0.43;;;;;;;;;;5004658;28;20616;-59
2021/12/27 10:16:38;;;;;;;0.50;0.50;;;;;;;;;;5007492;28;20201;-60
2021/12/27 10:19:06;;;;;;;0.50;0.50;;;;;;;;;;5008371;28;20713;-62
2021/12/27 10:21:33;;;;;;;0.40;0.40;;;;;;;;;;5009309;28;20406;-62
2021/12/27 10:24:10;;;;;;;0.40;0.40;;;;;;;;;;5009343;28;20181;-62
2021/12/27 10:26:37;;;;;;;0.40;0.40;;;;;;;;;;5009715;28;20280;-61
2021/12/27 10:29:09;;;;;;;0.50;0.50;;;;;;;;;;5009341;28;20192;-61
2021/12/27 10:31:54;;;;;;;0.40;0.40;;;;;;;;;;5010155;28;20212;-61
2021/12/27 10:34:21;;;;;;;0.50;0.50;;;;;;;;;;5010608;28;20264;-60
2021/12/27 10:37:00;;;;;;;0.50;0.50;;;;;;;;;;5010311;28;20708;-61
2021/12/27 10:39:42;;;;;;;0.50;0.50;;;;;;;;;;5011536;28;20178;-61
2021/12/27 10:42:08;;;;;;;0.50;0.50;;;;;;;;;;5003644;28;20192;-59
2021/12/27 10:44:35;;;;;;;0.50;0.50;;;;;;;;;;5000772;28;20256;-60
2021/12/27 10:47:01;;;;;;;0.50;0.50;;;;;;;;;;5007435;28;20263;-61
2021/12/27 10:49:46;;;;;;;0.50;0.50;;;;;;;;;;5010678;28;20193;-62
2021/12/27 10:52:12;;;;;;;0.50;0.50;;;;;;;;;;5015252;28;21069;-61
2021/12/27 10:54:38;;;;;;;0.50;0.50;;;;;;;;;;5013968;28;20177;-61
2021/12/27 10:57:04;;;;;;;0.50;0.50;;;;;;;;;;5004366;28;20453;-61
2021/12/27 10:59:30;;;;;;;0.40;0.40;;;;;;;;;;5002033;28;20448;-62
2021/12/27 11:01:56;;;;;;;0.50;0.50;;;;;;;;;;5012090;28;20186;-62
2021/12/27 11:04:22;;;;;;;0.40;0.40;;;;;;;;;;5013911;28;20187;-58
2021/12/27 11:06:54;;;;;;;0.60;0.60;;;;;;;;;;5012624;28;20448;-61
2021/12/27 11:09:21;;;;;;;0.50;0.50;;;;;;;;;;5012769;28;20464;-61
2021/12/27 11:11:46;;;;;;;0.40;0.40;;;;;;;;;;5012718;28;20232;-62
2021/12/27 11:14:12;;;;;;;0.50;0.50;;;;;;;;;;5011447;28;20592;-62
2021/12/27 11:16:38;;;;;;;0.50;0.50;;;;;;;;;;5012538;28;20789;-62
2021/12/27 11:19:04;;;;;;;0.47;0.47;;;;;;;;;;5007706;28;20425;-61
2021/12/27 11:21:35;;;;;;;0.50;0.50;;;;;;;;;;5008072;28;20435;-61
2021/12/27 11:24:02;;;;;;;0.50;0.50;;;;;;;;;;5012968;28;20431;-61
2021/12/27 11:26:30;;;;;;;0.50;0.50;;;;;;;;;;5008711;28;20296;-61
2021/12/27 11:29:11;;;;;;;0.50;0.50;;;;;;;;;;5005890;28;20256;-58
2021/12/27 11:31:38;;;;;;;0.40;0.40;;;;;;;;;;5006525;28;20213;-62
2021/12/27 11:34:05;;;;;;;0.40;0.40;;;;;;;;;;5012161;28;20192;-61
2021/12/27 11:36:32;;;;;;;0.40;0.40;;;;;;;;;;5011500;28;20289;-61
2021/12/27 11:38:59;;;;;;;0.40;0.40;;;;;;;;;;5004750;28;20197;-61
2021/12/27 11:41:25;;;;;;;0.40;0.40;;;;;;;;;;5010631;28;20616;-61
2021/12/27 11:43:55;;;;;;;0.50;0.50;;;;;;;;;;5011993;28;20181;-61
2021/12/27 11:46:22;;;;;;;0.50;0.50;;;;;;;;;;5012579;28;20464;-61
2021/12/27 11:48:50;;;;;;;0.40;0.40;;;;;;;;;;5012376;28;20545;-62
2021/12/27 11:51:16;;;;;;;0.40;0.40;;;;;;;;;;5011764;28;20201;-62
2021/12/27 11:53:44;;;;;;;0.50;0.50;;;;;;;;;;5010441;28;20178;-62
2021/12/27 11:56:11;;;;;;;0.40;0.40;;;;;;;;;;5011696;28;20205;-62
2021/12/27 11:58:43;;;;;;;0.40;0.40;;;;;;;;;;5010623;28;20260;-62
2021/12/27 12:01:21;;;;;;;0.50;0.50;;;;;;;;;;5010350;28;20180;-62
2021/12/27 12:03:47;;;;;;;0.40;0.40;;;;;;;;;;5008201;28;20197;-62
2021/12/27 12:06:32;;;;;;;0.40;0.40;;;;;;;;;;5008056;28;20209;-58
2021/12/27 12:09:00;;;;;;;0.40;0.40;;;;;;;;;;5011810;28;20656;-61
2021/12/27 12:11:32;;;;;;;0.40;0.40;;;;;;;;;;5013645;28;20209;-62
2021/12/27 12:13:59;;;;;;;0.50;0.50;;;;;;;;;;5010189;28;20174;-62
2021/12/27 12:16:26;;;;;;;0.40;0.40;;;;;;;;;;5010671;28;20201;-62
2021/12/27 12:18:52;;;;;;;0.50;0.50;;;;;;;;;;5011362;28;20223;-60
2021/12/27 12:21:33;;;;;;;0.40;0.40;;;;;;;;;;5011401;28;20634;-62
2021/12/27 12:24:02;;;;;;;0.50;0.50;;;;;;;;;;5001267;28;20433;-62
2021/12/27 12:26:28;;;;;;;0.50;0.50;;;;;;;;;;5009047;28;20558;-62
2021/12/27 12:29:03;;;;;;;0.50;0.50;;;;;;;;;;5012583;28;20189;-62
2021/12/27 12:31:31;;;;;;;0.50;0.50;;;;;;;;;;5011743;28;20244;-62
2021/12/27 12:34:07;;;;;;;0.50;0.50;;;;;;;;;;5004032;28;20297;-62
2021/12/27 12:36:43;;;;;;;0.40;0.40;;;;;;;;;;5010397;28;20209;-62
2021/12/27 12:39:09;;;;;;;0.50;0.50;;;;;;;;;;5014548;28;20240;-62
2021/12/27 12:41:35;;;;;;;0.50;0.50;;;;;;;;;;5011991;28;20178;-62
2021/12/27 12:44:01;;;;;;;0.50;0.50;;;;;;;;;;5011342;28;20518;-62
2021/12/27 12:46:36;;;;;;;0.40;0.40;;;;;;;;;;5004929;28;20519;-62
2021/12/27 12:49:12;;;;;;;0.50;0.50;;;;;;;;;;5009241;28;20208;-62
2021/12/27 12:51:51;;;;;;;0.50;0.50;;;;;;;;;;5007905;28;20284;-62
2021/12/27 12:54:23;;;;;;;0.50;0.50;;;;;;;;;;5009592;28;20178;-62
2021/12/27 12:56:50;;;;;;;0.40;0.40;;;;;;;;;;5011396;28;20201;-62
2021/12/27 12:59:19;;;;;;;0.40;0.40;;;;;;;;;;5010313;28;20181;-63
2021/12/27 13:01:54;;;;;;;0.50;0.50;;;;;;;;;;5007823;28;20189;-61
2021/12/27 13:04:20;;;;;;;0.40;0.40;;;;;;;;;;5010782;28;20188;-61
2021/12/27 13:06:46;;;;;;;0.50;0.50;;;;;;;;;;5010902;28;20201;-62
2021/12/27 13:09:12;;;;;;;0.40;0.40;;;;;;;;;;5011335;28;20519;-62
2021/12/27 13:11:38;;;;;;;0.50;0.50;;;;;;;;;;5005488;28;20464;-62
2021/12/27 13:14:05;;;;;;;0.50;0.50;;;;;;;;;;5011852;28;20729;-61
2021/12/27 13:16:31;;;;;;;0.40;0.40;;;;;;;;;;5009448;28;20444;-62
2021/12/27 13:19:06;;;;;;;0.50;0.50;;;;;;;;;;5009903;28;20228;-62
2021/12/27 13:21:32;;;;;;;0.40;0.40;;;;;;;;;;5008962;28;20247;-62
2021/12/27 13:24:03;;;;;;;0.40;0.40;;;;;;;;;;5009107;28;20550;-62
2021/12/27 13:26:29;;;;;;;0.50;0.50;;;;;;;;;;5007389;28;20189;-62
2021/12/27 13:28:55;;;;;;;0.40;0.40;;;;;;;;;;5009308;28;21503;-62
2021/12/27 13:31:25;;;;;;;0.40;0.40;;;;;;;;;;5009648;28;20503;-62
2021/12/27 13:33:52;;;;;;;0.50;0.50;;;;;;;;;;5010922;28;20425;-62
2021/12/27 13:36:24;;;;;;;0.50;0.50;;;;;;;;;;5002504;28;20214;-62
2021/12/27 13:39:10;;;;;;;0.50;0.50;;;;;;;;;;5011210;28;20236;-62
2021/12/27 13:41:37;;;;;;;0.40;0.40;;;;;;;;;;5010785;28;20618;-62
2021/12/27 13:44:07;;;;;;;0.50;0.50;;;;;;;;;;5011543;28;20566;-62
2021/12/27 13:46:47;;;;;;;0.50;0.50;;;;;;;;;;5009593;28;20252;-62
2021/12/27 13:49:13;;;;;;;0.50;0.50;;;;;;;;;;5011157;28;20246;-62
2021/12/27 13:51:39;;;;;;;0.40;0.40;;;;;;;;;;5010776;28;20220;-62
2021/12/27 13:54:08;;;;;;;0.40;0.40;;;;;;;;;;5013946;28;20471;-62
2021/12/27 13:56:35;;;;;;;0.40;0.40;;;;;;;;;;5003946;28;20229;-61
2021/12/27 13:59:09;;;;;;;0.50;0.50;;;;;;;;;;5009773;28;20208;-61
2021/12/27 14:01:36;;;;;;;0.50;0.50;;;;;;;;;;5008930;28;20186;-60
2021/12/27 14:04:16;;;;;;;0.50;0.50;;;;;;;;;;5010949;28;20211;-60
2021/12/27 14:06:43;;;;;;;0.40;0.40;;;;;;;;;;5010880;28;20577;-62
2021/12/27 14:09:10;;;;;;;0.40;0.40;;;;;;;;;;4993044;28;20210;-62
2021/12/27 14:11:48;;;;;;;0.40;0.40;;;;;;;;;;5010134;28;20239;-62
2021/12/27 14:14:14;;;;;;;0.40;0.40;;;;;;;;;;5004917;28;20196;-62
2021/12/27 14:16:40;;;;;;;0.45;0.45;;;;;;;;;;5010838;28;20201;-62
2021/12/27 14:19:10;;;;;;;0.40;0.40;;;;;;;;;;5011351;28;20178;-61
2021/12/27 14:21:55;;;;;;;0.40;0.40;;;;;;;;;;5009544;28;20265;-62
2021/12/27 14:24:28;;;;;;;0.40;0.40;;;;;;;;;;5011321;28;20228;-62
2021/12/27 14:26:54;;;;;;;0.40;0.40;;;;;;;;;;5012463;28;20212;-62
2021/12/27 14:29:21;;;;;;;0.40;0.40;;;;;;;;;;5010863;28;20181;-62
2021/12/27 14:31:48;;;;;;;0.40;0.40;;;;;;;;;;5013023;28;20503;-62
2021/12/27 14:34:14;;;;;;;0.40;0.40;;;;;;;;;;5014765;28;20188;-62
2021/12/27 14:36:49;;;;;;;0.50;0.50;;;;;;;;;;5025687;23;20242;-61
2021/12/27 14:39:15;;;;;;;0.40;0.40;;;;;;;;;;4982604;28;20191;-64
2021/12/27 14:41:41;;;;;;;0.40;0.40;;;;;;;;;;4983185;28;20678;-65
2021/12/27 14:44:07;;;;;;;0.50;0.50;;;;;;;;;;4975896;28;20417;-65
2021/12/27 14:46:33;;;;;;;0.50;0.50;;;;;;;;;;4991013;28;20448;-62
2021/12/27 14:48:59;;;;;;;0.50;0.50;;;;;;;;;;4975872;28;20414;-63
2021/12/27 14:51:25;;;;;;;0.50;0.50;;;;;;;;;;4982900;28;20550;-64
2021/12/27 14:53:51;;;;;;;0.50;0.50;;;;;;;;;;4978651;28;20442;-64